createdAt,value
2023-06-10T00:01:25.608Z,17.50
2023-06-10T00:04:13.904Z,17.40
2023-06-10T00:07:02.178Z,17.30
2023-06-10T00:09:51.705Z,17.20
2023-06-10T00:12:40.079Z,17.20
2023-06-10T00:15:29.735Z,17.00
2023-06-10T00:18:18.556Z,17.00
2023-06-10T00:21:06.857Z,16.90
2023-06-10T00:23:56.372Z,16.90
2023-06-10T00:26:44.618Z,16.80
2023-06-10T00:29:32.858Z,16.80
2023-06-10T00:32:22.382Z,16.70
2023-06-10T00:35:11.473Z,16.60
2023-06-10T00:37:59.903Z,16.50
2023-06-10T00:40:48.388Z,16.50
2023-06-10T00:43:36.603Z,16.50
2023-06-10T00:46:28.074Z,16.50
2023-06-10T00:49:18.106Z,16.40
2023-06-10T00:52:08.654Z,16.30
2023-06-10T00:54:56.987Z,16.20
2023-06-10T00:57:46.826Z,16.20
2023-06-10T01:00:35.047Z,16.10
2023-06-10T01:03:23.377Z,16.20
2023-06-10T01:06:23.633Z,16.20
2023-06-10T01:09:18.009Z,16.10
2023-06-10T01:12:12.279Z,15.90
2023-06-10T01:15:01.699Z,15.80
2023-06-10T01:18:00.721Z,15.80
2023-06-10T01:20:51.740Z,15.70
2023-06-10T01:23:41.763Z,15.70
2023-06-10T01:26:34.336Z,15.70
2023-06-10T01:29:28.456Z,15.60
2023-06-10T01:32:20.850Z,15.70
2023-06-10T01:35:10.465Z,15.70
2023-06-10T01:38:00.489Z,15.60
2023-06-10T01:40:51.427Z,15.60
2023-06-10T01:43:39.846Z,15.60
2023-06-10T01:46:28.092Z,15.50
2023-06-10T01:49:16.565Z,15.50
2023-06-10T01:52:05.340Z,15.50
2023-06-10T01:54:53.536Z,15.40
2023-06-10T01:57:43.075Z,15.30
2023-06-10T02:00:31.373Z,15.20
2023-06-10T02:03:19.805Z,15.20
2023-06-10T02:06:08.214Z,15.20
2023-06-10T02:08:56.446Z,15.20
2023-06-10T02:11:44.673Z,15.20
2023-06-10T02:14:35.356Z,15.20
2023-06-10T02:17:24.313Z,15.10
2023-06-10T02:20:14.730Z,15.10
2023-06-10T02:23:02.932Z,15.10
2023-06-10T02:25:51.183Z,15.10
2023-06-10T02:28:39.420Z,15.00
2023-06-10T02:31:30.009Z,15.00
2023-06-10T02:34:18.298Z,14.90
2023-06-10T02:37:06.834Z,14.90
2023-06-10T02:39:55.023Z,14.80
2023-06-10T02:42:43.282Z,14.70
2023-06-10T02:45:31.502Z,14.70
2023-06-10T02:48:21.058Z,14.70
2023-06-10T02:51:09.277Z,14.70
2023-06-10T02:53:57.480Z,14.50
2023-06-10T02:56:45.664Z,14.40
2023-06-10T02:59:34.056Z,14.40
2023-06-10T03:02:22.686Z,14.40
2023-06-10T03:05:12.592Z,14.40
2023-06-10T03:08:00.921Z,14.30
2023-06-10T03:10:49.139Z,14.30
2023-06-10T03:13:37.332Z,14.30
2023-06-10T03:16:26.402Z,14.40
2023-06-10T03:19:14.684Z,14.40
2023-06-10T03:22:12.212Z,14.30
2023-06-10T03:25:00.853Z,14.30
2023-06-10T03:27:49.221Z,14.30
2023-06-10T03:30:37.461Z,14.30
2023-06-10T03:33:25.876Z,14.30
2023-06-10T03:36:14.379Z,14.20
2023-06-10T03:39:04.053Z,14.20
2023-06-10T03:41:52.532Z,14.10
2023-06-10T03:44:41.197Z,14.10
2023-06-10T03:47:35.928Z,14.10
2023-06-10T03:50:25.425Z,14.10
2023-06-10T03:53:13.604Z,14.10
2023-06-10T03:56:03.180Z,14.10
2023-06-10T03:58:51.416Z,14.10
2023-06-10T04:01:42.376Z,14.10
2023-06-10T04:04:31.085Z,14.20
2023-06-10T04:07:20.044Z,14.20
2023-06-10T04:10:09.776Z,14.10
2023-06-10T04:12:59.608Z,14.10
2023-06-10T04:15:47.832Z,14.20
2023-06-10T04:18:37.255Z,14.20
2023-06-10T04:21:25.849Z,14.20
2023-06-10T04:24:14.229Z,14.30
2023-06-10T04:27:02.649Z,14.30
2023-06-10T04:29:52.180Z,14.20
2023-06-10T04:32:40.443Z,14.20
2023-06-10T04:35:28.891Z,14.30
2023-06-10T04:38:17.088Z,14.30
2023-06-10T04:41:05.338Z,14.30
2023-06-10T04:43:54.675Z,14.30
2023-06-10T04:46:44.274Z,14.40
2023-06-10T04:49:32.570Z,14.40
2023-06-10T04:52:20.977Z,14.50
2023-06-10T04:55:11.160Z,14.50
2023-06-10T04:57:59.602Z,14.50
2023-06-10T05:00:47.861Z,14.50
2023-06-10T05:03:37.542Z,14.50
2023-06-10T05:06:26.028Z,14.60
2023-06-10T05:09:14.271Z,14.60
2023-06-10T05:12:03.285Z,14.70
2023-06-10T05:14:51.518Z,14.70
2023-06-10T05:17:39.866Z,14.80
2023-06-10T05:20:29.806Z,14.80
2023-06-10T05:23:18.180Z,14.80
2023-06-10T05:26:06.366Z,14.90
2023-06-10T05:28:54.801Z,15.00
2023-06-10T05:31:43.070Z,15.00
2023-06-10T05:34:31.365Z,15.00
2023-06-10T05:37:21.068Z,15.10
2023-06-10T05:40:10.699Z,15.10
2023-06-10T05:42:58.983Z,15.20
2023-06-10T05:45:47.270Z,15.40
2023-06-10T05:48:35.521Z,15.60
2023-06-10T05:51:23.824Z,15.70
2023-06-10T05:54:13.390Z,15.80
2023-06-10T05:57:01.632Z,15.90
2023-06-10T05:59:49.826Z,15.90
2023-06-10T06:02:38.099Z,16.00
2023-06-10T06:05:26.480Z,16.00
2023-06-10T06:08:18.380Z,16.10
2023-06-10T06:11:08.001Z,16.20
2023-06-10T06:13:57.073Z,16.20
2023-06-10T06:16:45.423Z,16.30
2023-06-10T06:19:33.644Z,16.30
2023-06-10T06:22:23.232Z,16.40
2023-06-10T06:25:11.807Z,16.50
2023-06-10T06:28:01.627Z,16.60
2023-06-10T06:30:49.887Z,16.70
2023-06-10T06:33:38.099Z,16.80
2023-06-10T06:36:26.343Z,16.90
2023-06-10T06:39:14.843Z,17.00
2023-06-10T06:42:03.809Z,17.20
2023-06-10T06:44:53.616Z,17.30
2023-06-10T06:47:41.867Z,17.40
2023-06-10T06:50:30.227Z,17.50
2023-06-10T06:53:18.434Z,17.60
2023-06-10T06:56:07.085Z,17.70
2023-06-10T06:58:57.818Z,17.80
2023-06-10T07:01:48.122Z,17.90
2023-06-10T07:04:36.425Z,18.00
2023-06-10T07:07:24.680Z,18.00
2023-06-10T07:10:13.157Z,18.10
2023-06-10T07:13:01.469Z,18.10
2023-06-10T07:15:50.586Z,18.20
2023-06-10T07:18:40.309Z,18.30
2023-06-10T07:21:29.607Z,18.30
2023-06-10T07:24:17.994Z,18.50
2023-06-10T07:27:08.278Z,18.50
2023-06-10T07:29:56.500Z,18.50
2023-06-10T07:32:45.358Z,18.70
2023-06-10T07:35:35.079Z,18.70
2023-06-10T07:38:23.397Z,18.80
2023-06-10T07:41:11.841Z,18.80
2023-06-10T07:44:00.146Z,18.90
2023-06-10T07:46:48.404Z,19.10
2023-06-10T07:49:36.683Z,19.10
2023-06-10T07:52:26.945Z,19.20
2023-06-10T07:55:15.163Z,19.30
2023-06-10T07:58:03.453Z,19.30
2023-06-10T08:00:51.807Z,19.30
2023-06-10T08:03:40.166Z,19.40
2023-06-10T08:06:28.495Z,19.50
2023-06-10T08:09:19.416Z,19.60
2023-06-10T08:12:09.592Z,19.70
2023-06-10T08:14:57.818Z,19.90
2023-06-10T08:17:46.534Z,20.00
2023-06-10T08:20:34.751Z,20.10
2023-06-10T08:23:23.232Z,20.20
2023-06-10T08:26:13.019Z,20.40
2023-06-10T08:29:01.239Z,20.30
2023-06-10T08:31:49.583Z,20.40
2023-06-10T08:34:37.906Z,20.40
2023-06-10T08:37:26.712Z,20.60
2023-06-10T08:40:15.276Z,20.70
2023-06-10T08:43:08.908Z,20.60
2023-06-10T08:46:01.725Z,20.70
2023-06-10T08:48:56.575Z,20.80
2023-06-10T08:51:45.111Z,20.90
2023-06-10T08:54:40.324Z,21.00
2023-06-10T08:57:29.230Z,21.10
2023-06-10T09:00:19.217Z,21.30
2023-06-10T09:03:10.236Z,21.40
2023-06-10T09:05:59.669Z,21.60
2023-06-10T09:08:48.355Z,21.70
2023-06-10T09:11:36.644Z,21.80
2023-06-10T09:14:25.314Z,21.90
2023-06-10T09:17:14.953Z,22.00
2023-06-10T09:20:03.950Z,22.20
2023-06-10T09:22:52.305Z,22.40
2023-06-10T09:25:41.481Z,22.50
2023-06-10T09:28:29.758Z,22.60
2023-06-10T09:31:19.673Z,22.60
2023-06-10T09:34:14.415Z,22.70
2023-06-10T09:37:02.684Z,22.90
2023-06-10T09:40:10.114Z,23.10
2023-06-10T09:43:00.751Z,23.20
2023-06-10T09:45:50.612Z,23.30
2023-06-10T09:48:43.713Z,23.40
2023-06-10T09:51:33.425Z,23.50
2023-06-10T09:54:22.464Z,23.60
2023-06-10T09:57:11.324Z,23.60
2023-06-10T10:00:01.288Z,23.70
2023-06-10T10:02:51.962Z,23.80
2023-06-10T10:05:41.015Z,23.80
2023-06-10T10:08:33.724Z,23.90
2023-06-10T10:11:24.263Z,24.10
2023-06-10T10:14:14.929Z,24.30
2023-06-10T10:17:04.167Z,24.40
2023-06-10T10:19:55.787Z,24.50
2023-06-10T10:22:45.770Z,24.60
2023-06-10T10:25:40.263Z,24.70
2023-06-10T10:28:36.243Z,24.80
2023-06-10T10:31:25.763Z,25.10
2023-06-10T10:34:17.989Z,25.40
2023-06-10T10:37:06.700Z,25.50
2023-06-10T10:39:55.272Z,25.70
2023-06-10T10:42:45.640Z,25.90
2023-06-10T10:45:35.231Z,26.20
2023-06-10T10:48:23.538Z,26.40
2023-06-10T10:51:11.900Z,26.60
2023-06-10T10:54:15.689Z,26.70
2023-06-10T10:57:14.739Z,26.80
2023-06-10T11:00:06.081Z,26.90
2023-06-10T11:02:57.249Z,27.00
2023-06-10T11:05:50.182Z,27.10
2023-06-10T11:08:49.675Z,27.20
2023-06-10T11:11:51.798Z,27.40
2023-06-10T11:14:57.965Z,27.50
2023-06-10T11:18:23.090Z,27.70
2023-06-10T11:21:11.393Z,27.80
2023-06-10T11:24:00.734Z,28.00
2023-06-10T11:26:49.029Z,28.20
2023-06-10T11:29:37.304Z,28.20
2023-06-10T11:32:28.655Z,28.20
2023-06-10T11:35:18.501Z,28.40
2023-06-10T11:38:06.746Z,28.70
2023-06-10T11:40:55.122Z,28.90
2023-06-10T11:43:45.249Z,28.90
2023-06-10T11:46:33.417Z,28.80
2023-06-10T11:49:23.044Z,28.90
2023-06-10T11:52:13.830Z,29.10
2023-06-10T11:55:02.469Z,29.40
2023-06-10T11:57:58.485Z,29.60
2023-06-10T12:00:48.304Z,29.80
2023-06-10T12:03:39.288Z,30.00
2023-06-10T12:06:27.965Z,30.00
2023-06-10T12:09:25.210Z,29.90
2023-06-10T12:12:15.213Z,30.20
2023-06-10T12:15:06.038Z,30.40
2023-06-10T12:17:54.395Z,30.60
2023-06-10T12:20:43.775Z,30.70
2023-06-10T12:23:32.058Z,30.70
2023-06-10T12:26:21.681Z,30.40
2023-06-10T12:29:21.654Z,30.10
2023-06-10T12:32:11.587Z,30.00
2023-06-10T12:35:05.226Z,30.20
2023-06-10T12:37:58.547Z,30.30
2023-06-10T12:40:46.778Z,30.20
2023-06-10T12:43:36.451Z,29.80
2023-06-10T12:46:25.567Z,29.50
2023-06-10T12:49:21.876Z,29.40
2023-06-10T12:52:10.198Z,29.40
2023-06-10T12:54:58.697Z,29.50
2023-06-10T12:57:51.227Z,29.50
2023-06-10T13:00:41.744Z,29.40
2023-06-10T13:03:29.966Z,29.40
2023-06-10T13:06:19.913Z,29.80
2023-06-10T13:09:11.544Z,30.30
2023-06-10T13:12:00.992Z,30.70
2023-06-10T13:14:49.836Z,31.00
2023-06-10T13:17:40.296Z,31.10
2023-06-10T13:20:28.582Z,30.80
2023-06-10T13:23:16.907Z,31.00
2023-06-10T13:26:05.820Z,31.10
2023-06-10T13:28:54.094Z,31.00
2023-06-10T13:31:42.467Z,30.80
2023-06-10T13:34:32.279Z,31.10
2023-06-10T13:37:20.649Z,31.20
2023-06-10T13:40:10.850Z,31.00
2023-06-10T13:42:59.175Z,31.00
2023-06-10T13:45:47.595Z,30.70
2023-06-10T13:48:36.427Z,30.30
2023-06-10T13:51:26.567Z,29.90
2023-06-10T13:54:16.601Z,30.00
2023-06-10T13:57:05.421Z,30.40
2023-06-10T13:59:53.945Z,30.80
2023-06-10T14:02:42.830Z,31.20
2023-06-10T14:05:32.281Z,30.90
2023-06-10T14:08:22.391Z,30.10
2023-06-10T14:11:10.519Z,29.00
2023-06-10T14:13:59.534Z,27.70
2023-06-10T14:16:47.734Z,26.50
2023-06-10T14:19:35.956Z,25.50
2023-06-10T14:22:24.110Z,24.70
2023-06-10T14:25:13.933Z,24.00
2023-06-10T14:28:02.309Z,23.60
2023-06-10T14:30:50.550Z,23.30
2023-06-10T14:33:38.838Z,23.10
2023-06-10T14:36:27.072Z,22.90
2023-06-10T14:39:15.289Z,22.60
2023-06-10T14:42:05.350Z,22.50
2023-06-10T14:44:53.592Z,22.30
2023-06-10T14:47:41.862Z,22.10
2023-06-10T14:50:30.104Z,21.90
2023-06-10T14:53:18.348Z,21.70
2023-06-10T14:56:06.937Z,21.50
2023-06-10T14:58:56.511Z,21.60
2023-06-10T15:01:44.762Z,21.60
2023-06-10T15:04:32.990Z,21.60
2023-06-10T15:07:21.573Z,21.70
2023-06-10T15:10:10.630Z,21.70
2023-06-10T15:12:59.408Z,21.80
2023-06-10T15:15:49.040Z,21.90
2023-06-10T15:18:37.361Z,21.90
2023-06-10T15:21:25.621Z,21.90
2023-06-10T15:24:13.870Z,22.00
2023-06-10T15:27:02.107Z,22.10
2023-06-10T15:29:50.307Z,22.20
2023-06-10T15:32:39.911Z,22.40
2023-06-10T15:35:28.327Z,22.60
2023-06-10T15:38:16.633Z,22.80
2023-06-10T15:41:04.868Z,23.10
2023-06-10T15:43:53.055Z,23.50
2023-06-10T15:46:41.354Z,23.50
2023-06-10T15:49:30.971Z,23.60
2023-06-10T15:52:19.506Z,23.60
2023-06-10T15:55:08.282Z,23.70
2023-06-10T15:57:58.120Z,23.70
2023-06-10T16:00:46.381Z,23.70
2023-06-10T16:03:35.127Z,23.80
2023-06-10T16:06:24.940Z,23.90
2023-06-10T16:09:13.161Z,24.00
2023-06-10T16:12:01.348Z,24.20
2023-06-10T16:14:49.582Z,24.30
2023-06-10T16:17:39.037Z,24.80
2023-06-10T16:20:27.313Z,25.80
2023-06-10T16:23:17.273Z,25.60
2023-06-10T16:26:05.486Z,25.20
2023-06-10T16:28:53.682Z,24.80
2023-06-10T16:31:42.202Z,25.00
2023-06-10T16:34:30.437Z,25.60
2023-06-10T16:37:18.755Z,25.70
2023-06-10T16:40:09.364Z,25.60
2023-06-10T16:42:57.589Z,25.40
2023-06-10T16:45:45.831Z,25.10
2023-06-10T16:48:34.049Z,24.70
2023-06-10T16:51:22.234Z,24.50
2023-06-10T16:54:10.562Z,24.40
2023-06-10T16:57:00.139Z,24.20
2023-06-10T16:59:51.394Z,24.40
2023-06-10T17:02:39.602Z,24.90
2023-06-10T17:05:27.898Z,26.00
2023-06-10T17:08:16.134Z,26.90
2023-06-10T17:11:04.388Z,27.60
2023-06-10T17:13:54.049Z,28.20
2023-06-10T17:16:42.383Z,28.70
2023-06-10T17:19:31.685Z,28.60
2023-06-10T17:22:20.718Z,28.10
2023-06-10T17:25:09.742Z,27.60
2023-06-10T17:27:58.165Z,27.30
2023-06-10T17:30:48.686Z,27.30
2023-06-10T17:33:36.893Z,27.30
2023-06-10T17:36:25.120Z,27.50
2023-06-10T17:39:14.323Z,27.00
2023-06-10T17:42:02.504Z,26.60
2023-06-10T17:44:50.737Z,26.40
2023-06-10T17:47:40.405Z,26.00
2023-06-10T17:50:29.146Z,25.60
2023-06-10T17:53:17.769Z,25.30
2023-06-10T17:56:06.242Z,25.10
2023-06-10T17:58:54.460Z,24.90
2023-06-10T18:01:42.719Z,24.90
2023-06-10T18:04:32.394Z,24.70
2023-06-10T18:07:21.037Z,24.50
2023-06-10T18:10:10.176Z,24.30
2023-06-10T18:12:58.687Z,24.10
2023-06-10T18:15:47.152Z,24.10
2023-06-10T18:18:35.422Z,24.00
2023-06-10T18:21:25.038Z,23.90
2023-06-10T18:24:13.376Z,23.70
2023-06-10T18:27:01.742Z,23.60
2023-06-10T18:29:49.918Z,23.50
2023-06-10T18:32:38.526Z,23.40
2023-06-10T18:35:26.852Z,23.30
2023-06-10T18:38:16.528Z,23.30
2023-06-10T18:41:04.782Z,23.20
2023-06-10T18:43:52.976Z,23.20
2023-06-10T18:46:41.362Z,23.10
2023-06-10T18:49:29.576Z,23.00
2023-06-10T18:52:17.881Z,22.90
2023-06-10T18:55:08.546Z,22.80
2023-06-10T18:57:56.945Z,22.70
2023-06-10T19:00:45.764Z,22.50
2023-06-10T19:03:34.320Z,22.30
2023-06-10T19:06:22.618Z,22.30
2023-06-10T19:09:11.144Z,22.20
2023-06-10T19:12:00.700Z,22.10
2023-06-10T19:14:48.947Z,22.00
2023-06-10T19:17:37.153Z,21.90
2023-06-10T19:20:25.405Z,21.90
2023-06-10T19:23:13.631Z,21.80
2023-06-10T19:26:01.955Z,21.70
2023-06-10T19:28:52.465Z,21.70
2023-06-10T19:31:40.724Z,21.60
2023-06-10T19:34:29.062Z,21.50
2023-06-10T19:37:17.475Z,21.50
2023-06-10T19:40:06.662Z,21.40
2023-06-10T19:42:54.927Z,21.20
2023-06-10T19:45:44.890Z,21.20
2023-06-10T19:48:33.092Z,21.10
2023-06-10T19:51:21.367Z,21.10
2023-06-10T19:54:09.611Z,20.90
2023-06-10T19:56:57.785Z,20.80
2023-06-10T19:59:46.046Z,20.80
2023-06-10T20:02:35.675Z,20.80
2023-06-10T20:05:24.425Z,20.80
2023-06-10T20:08:12.744Z,20.80
2023-06-10T20:11:01.077Z,20.80
2023-06-10T20:13:49.314Z,20.70
2023-06-10T20:16:37.611Z,20.70
2023-06-10T20:19:27.215Z,20.70
2023-06-10T20:22:17.191Z,20.60
2023-06-10T20:25:06.313Z,20.60
2023-06-10T20:27:54.558Z,20.60
2023-06-10T20:30:42.787Z,20.50
2023-06-10T20:33:31.328Z,20.50
2023-06-10T20:36:21.707Z,20.40
2023-06-10T20:39:09.961Z,20.40
2023-06-10T20:41:58.195Z,20.30
2023-06-10T20:44:46.581Z,20.30
2023-06-10T20:47:34.788Z,20.20
2023-06-10T20:50:23.216Z,20.20
2023-06-10T20:53:12.738Z,20.20
2023-06-10T20:56:02.051Z,20.10
2023-06-10T20:58:50.598Z,20.10
2023-06-10T21:01:38.961Z,20.10
2023-06-10T21:04:27.216Z,20.00
2023-06-10T21:07:15.610Z,20.00
2023-06-10T21:10:05.853Z,19.90
2023-06-10T21:12:54.051Z,19.80
2023-06-10T21:15:42.280Z,19.70
2023-06-10T21:18:32.559Z,19.70
2023-06-10T21:21:21.514Z,19.50
2023-06-10T21:24:10.093Z,19.50
2023-06-10T21:26:59.923Z,19.50
2023-06-10T21:29:48.659Z,19.40
2023-06-10T21:32:37.332Z,19.40
2023-06-10T21:35:25.607Z,19.30
2023-06-10T21:38:13.794Z,19.20
2023-06-10T21:41:02.009Z,19.10
2023-06-10T21:43:51.560Z,19.10
2023-06-10T21:46:39.875Z,19.10
2023-06-10T21:49:28.292Z,19.10
2023-06-10T21:52:16.658Z,19.10
2023-06-10T21:55:06.513Z,19.00
2023-06-10T21:57:54.772Z,18.90
2023-06-10T22:00:44.420Z,18.90
2023-06-10T22:03:33.653Z,18.80
2023-06-10T22:06:21.977Z,18.80
2023-06-10T22:09:10.166Z,18.70
2023-06-10T22:11:58.422Z,18.70
2023-06-10T22:14:47.131Z,18.60
2023-06-10T22:17:36.929Z,18.50
2023-06-10T22:20:26.044Z,18.50
2023-06-10T22:23:21.539Z,18.40
2023-06-10T22:26:09.743Z,18.40
2023-06-10T22:28:59.213Z,18.30
2023-06-10T22:31:47.569Z,18.30
2023-06-10T22:34:37.101Z,18.30
2023-06-10T22:37:25.429Z,18.30
2023-06-10T22:40:14.267Z,18.20
2023-06-10T22:43:02.488Z,18.20
2023-06-10T22:45:50.740Z,18.20
2023-06-10T22:48:39.098Z,18.20
2023-06-10T22:51:28.938Z,18.10
2023-06-10T22:54:17.143Z,18.10
2023-06-10T22:57:06.314Z,18.10
2023-06-10T22:59:54.484Z,18.00
2023-06-10T23:02:42.820Z,18.00
2023-06-10T23:05:31.072Z,18.00
2023-06-10T23:08:20.909Z,18.00
2023-06-10T23:11:09.139Z,18.00
2023-06-10T23:13:59.579Z,18.00
2023-06-10T23:16:47.909Z,18.00
2023-06-10T23:19:41.507Z,18.00
2023-06-10T23:22:32.395Z,17.90
2023-06-10T23:25:23.351Z,17.90
2023-06-10T23:28:11.405Z,17.80
2023-06-10T23:30:59.659Z,17.80
2023-06-10T23:33:50.682Z,17.80
2023-06-10T23:36:41.483Z,17.80
2023-06-10T23:39:29.747Z,17.80
2023-06-10T23:42:19.689Z,17.90
2023-06-10T23:45:09.148Z,17.90
2023-06-10T23:47:57.816Z,17.90
2023-06-10T23:50:46.074Z,17.90
2023-06-10T23:53:34.323Z,17.90
2023-06-10T23:56:23.372Z,17.90
2023-06-10T23:59:12.919Z,18.00
